createdAt,value
2022-09-05T00:02:04.335Z,8.10
2022-09-05T00:04:46.229Z,8.27
2022-09-05T00:07:37.476Z,7.83
2022-09-05T00:10:27.517Z,8.30
2022-09-05T00:13:10.811Z,7.87
2022-09-05T00:16:01.387Z,8.40
2022-09-05T00:23:12.118Z,7.97
2022-09-05T00:24:27.146Z,7.97
2022-09-05T00:25:53.607Z,7.87
2022-09-05T00:28:38.353Z,7.90
2022-09-05T00:31:50.894Z,7.67
2022-09-05T00:35:03.371Z,7.70
2022-09-05T00:37:44.753Z,7.70
2022-09-05T00:40:18.394Z,7.90
2022-09-05T00:42:48.711Z,8.33
2022-09-05T00:45:31.483Z,7.60
2022-09-05T00:48:12.996Z,7.63
2022-09-05T00:51:00.307Z,8.27
2022-09-05T00:53:37.864Z,7.40
2022-09-05T00:56:19.491Z,7.00
2022-09-05T00:59:22.783Z,6.97
2022-09-05T01:02:04.912Z,7.40
2022-09-05T01:04:49.239Z,7.50
2022-09-05T01:07:31.921Z,7.40
2022-09-05T01:10:19.950Z,6.40
2022-09-05T01:13:03.023Z,6.07
2022-09-05T01:15:53.865Z,6.50
2022-09-05T01:18:32.682Z,5.97
2022-09-05T01:21:11.569Z,6.10
2022-09-05T01:24:29.311Z,7.37
2022-09-05T01:27:38.239Z,8.17
2022-09-05T01:30:41.753Z,7.23
2022-09-05T01:33:15.053Z,8.27
2022-09-05T01:36:04.023Z,7.50
2022-09-05T01:39:49.177Z,7.37
2022-09-05T01:41:49.743Z,7.73
2022-09-05T01:44:38.043Z,8.10
2022-09-05T01:47:29.569Z,8.20
2022-09-05T01:50:28.976Z,7.67
2022-09-05T01:53:10.969Z,7.90
2022-09-05T01:56:09.235Z,7.80
2022-09-05T01:59:05.975Z,7.50
2022-09-05T02:02:20.673Z,7.27
2022-09-05T02:05:48.462Z,7.70
2022-09-05T02:08:16.349Z,7.27
2022-09-05T02:10:46.776Z,7.67
2022-09-05T02:13:33.723Z,8.17
2022-09-05T02:16:21.656Z,7.60
2022-09-05T02:19:00.173Z,7.70
2022-09-05T02:21:40.684Z,7.57
2022-09-05T02:24:46.181Z,7.50
2022-09-05T02:28:04.966Z,7.80
2022-09-05T02:30:25.868Z,7.20
2022-09-05T02:33:14.336Z,7.03
2022-09-05T02:36:22.905Z,7.93
2022-09-05T02:45:01.284Z,7.90
2022-09-05T02:45:10.843Z,7.30
2022-09-05T02:45:25.460Z,7.83
2022-09-05T02:47:57.336Z,6.50
2022-09-05T02:55:19.917Z,7.17
2022-09-05T02:57:38.163Z,6.33
2022-09-05T02:57:40.241Z,6.33
2022-09-05T02:59:36.169Z,6.80
2022-09-05T03:02:26.272Z,6.30
2022-09-05T03:05:05.570Z,7.23
2022-09-05T03:07:44.197Z,7.20
2022-09-05T03:10:45.698Z,7.20
2022-09-05T03:13:33.359Z,6.90
2022-09-05T03:16:47.083Z,7.30
2022-09-05T03:19:49.308Z,6.83
2022-09-05T03:22:37.153Z,6.93
2022-09-05T03:25:19.285Z,7.13
2022-09-05T03:28:04.404Z,6.63
2022-09-05T03:30:43.373Z,7.13
2022-09-05T03:33:52.233Z,7.37
2022-09-05T03:36:51.203Z,6.57
2022-09-05T03:39:43.118Z,6.77
2022-09-05T03:42:31.964Z,6.50
2022-09-05T03:45:36.596Z,6.53
2022-09-05T03:48:36.035Z,6.30
2022-09-05T03:57:06.748Z,6.37
2022-09-05T03:57:16.236Z,6.90
2022-09-05T03:57:44.558Z,6.33
2022-09-05T04:00:26.015Z,6.30
2022-09-05T04:08:10.606Z,6.10
2022-09-05T04:08:14.241Z,6.40
2022-09-05T04:09:48.927Z,6.20
2022-09-05T04:12:29.850Z,6.43
2022-09-05T04:15:18.768Z,5.63
2022-09-05T04:17:48.246Z,5.83
2022-09-05T04:20:47.872Z,6.23
2022-09-05T04:23:45.750Z,6.10
2022-09-05T04:26:30.335Z,6.00
2022-09-05T04:29:24.913Z,5.90
2022-09-05T04:32:17.983Z,6.03
2022-09-05T04:35:07.514Z,6.20
2022-09-05T04:37:55.366Z,5.90
2022-09-05T04:40:47.892Z,5.80
2022-09-05T04:43:28.468Z,5.97
2022-09-05T04:46:01.687Z,6.03
2022-09-05T04:48:35.464Z,5.80
2022-09-05T04:51:11.740Z,6.20
2022-09-05T04:54:31.154Z,5.77
2022-09-05T04:57:23.285Z,5.97
2022-09-05T05:04:38.141Z,5.90
2022-09-05T05:06:05.205Z,5.73
2022-09-05T05:06:09.429Z,6.60
2022-09-05T05:08:38.913Z,5.63
2022-09-05T05:17:57.231Z,6.23
2022-09-05T05:18:06.380Z,6.03
2022-09-05T05:18:39.652Z,5.87
2022-09-05T05:20:56.464Z,6.27
2022-09-05T05:23:52.108Z,6.37
2022-09-05T05:26:41.680Z,5.83
2022-09-05T05:29:11.436Z,5.33
2022-09-05T05:31:41.190Z,5.70
2022-09-05T05:34:29.745Z,5.23
2022-09-05T05:37:02.960Z,5.70
2022-09-05T05:39:31.037Z,5.90
2022-09-05T05:41:58.795Z,5.97
2022-09-05T05:44:35.160Z,5.97
2022-09-05T05:47:08.946Z,5.53
2022-09-05T05:49:59.642Z,5.97
2022-09-05T05:52:53.867Z,5.77
2022-09-05T05:55:51.429Z,5.90
2022-09-05T05:59:07.062Z,5.63
2022-09-05T06:01:37.682Z,5.53
2022-09-05T06:04:44.992Z,5.50
2022-09-05T06:07:39.415Z,5.33
2022-09-05T06:14:49.991Z,5.13
2022-09-05T06:14:58.262Z,5.73
2022-09-05T06:16:57.673Z,5.97
2022-09-05T06:22:06.384Z,6.07
2022-09-05T06:23:06.997Z,6.00
2022-09-05T06:26:15.227Z,6.57
2022-09-05T06:29:19.791Z,6.40
2022-09-05T06:32:07.334Z,5.97
2022-09-05T06:34:59.751Z,6.40
2022-09-05T06:37:30.816Z,6.47
2022-09-05T06:40:17.098Z,6.60
2022-09-05T06:43:02.694Z,6.97
2022-09-05T06:45:58.631Z,7.00
2022-09-05T06:49:28.466Z,7.47
2022-09-05T06:52:06.832Z,7.50
2022-09-05T06:55:04.934Z,7.50
2022-09-05T06:57:50.218Z,7.50
2022-09-05T07:00:23.702Z,7.40
2022-09-05T07:03:04.091Z,7.70
2022-09-05T07:05:45.242Z,7.70
2022-09-05T07:08:53.958Z,8.10
2022-09-05T07:11:26.409Z,7.83
2022-09-05T07:14:16.500Z,8.53
2022-09-05T07:16:50.965Z,8.03
2022-09-05T07:19:25.876Z,8.37
2022-09-05T07:22:04.922Z,8.90
2022-09-05T07:24:54.678Z,8.17
2022-09-05T07:28:26.287Z,8.17
2022-09-05T07:30:35.544Z,8.27
2022-09-05T07:33:12.420Z,9.03
2022-09-05T07:35:45.634Z,8.20
2022-09-05T07:38:22.950Z,9.00
2022-09-05T07:41:15.318Z,8.37
2022-09-05T07:43:46.512Z,8.30
2022-09-05T07:46:16.573Z,7.20
2022-09-05T07:49:00.656Z,8.33
2022-09-05T07:56:51.197Z,7.97
2022-09-05T07:56:51.981Z,8.07
2022-09-05T07:57:31.309Z,7.13
2022-09-05T08:00:04.806Z,7.57
2022-09-05T08:02:48.357Z,6.83
2022-09-05T08:05:34.356Z,7.70
2022-09-05T08:08:05.475Z,7.80
2022-09-05T08:11:22.778Z,7.83
2022-09-05T08:13:52.680Z,6.83
2022-09-05T08:16:26.595Z,7.27
2022-09-05T08:19:18.283Z,6.70
2022-09-05T08:21:48.894Z,7.00
2022-09-05T08:24:25.556Z,6.33
2022-09-05T08:27:24.487Z,6.70
2022-09-05T08:30:24.904Z,5.90
2022-09-05T08:33:11.494Z,6.50
2022-09-05T08:35:43.858Z,5.88
2022-09-05T08:38:13.576Z,5.57
2022-09-05T08:41:33.447Z,5.75
2022-09-05T08:46:40.696Z,5.55
2022-09-05T08:47:46.840Z,6.20
2022-09-05T08:50:26.984Z,5.53
2022-09-05T08:53:28.368Z,5.47
2022-09-05T08:56:22.780Z,5.43
2022-09-05T08:58:54.074Z,5.68
2022-09-05T09:02:48.021Z,5.07
2022-09-05T09:05:07.626Z,4.60
2022-09-05T09:08:01.198Z,4.70
2022-09-05T09:10:34.976Z,4.80
2022-09-05T09:13:12.597Z,5.03
2022-09-05T09:16:04.808Z,4.68
2022-09-05T09:19:18.366Z,5.03
2022-09-05T09:22:20.000Z,4.60
2022-09-05T09:25:15.886Z,4.35
2022-09-05T09:28:47.596Z,3.47
2022-09-05T09:30:51.972Z,3.88
2022-09-05T09:33:33.806Z,4.30
2022-09-05T09:36:09.472Z,4.20
2022-09-05T09:38:48.084Z,4.20
2022-09-05T09:41:29.918Z,3.15
2022-09-05T09:44:14.880Z,3.00
2022-09-05T09:46:43.790Z,3.15
2022-09-05T09:49:22.467Z,3.40
2022-09-05T09:52:05.556Z,3.00
2022-09-05T09:55:16.452Z,2.85
2022-09-05T09:57:57.458Z,2.70
2022-09-05T10:00:24.709Z,3.10
2022-09-05T10:06:54.070Z,2.83
2022-09-05T10:10:45.153Z,2.78
2022-09-05T10:11:18.882Z,2.63
2022-09-05T10:12:53.272Z,2.70
2022-09-05T10:15:46.844Z,2.92
2022-09-05T10:18:36.454Z,2.70
2022-09-05T10:21:24.602Z,2.97
2022-09-05T10:24:10.280Z,2.60
2022-09-05T10:27:19.829Z,2.90
2022-09-05T10:30:06.476Z,2.75
2022-09-05T10:35:17.161Z,2.70
2022-09-05T10:35:44.504Z,2.60
2022-09-05T10:38:21.382Z,2.70
2022-09-05T10:41:20.424Z,2.80
2022-09-05T10:43:50.868Z,2.80
2022-09-05T10:46:50.230Z,2.80
2022-09-05T10:49:23.228Z,3.10
2022-09-05T10:52:19.421Z,2.75
2022-09-05T10:55:18.472Z,2.75
2022-09-05T10:58:05.554Z,3.05
2022-09-05T11:02:21.540Z,2.83
2022-09-05T11:04:19.675Z,3.15
2022-09-05T11:06:46.490Z,3.30
2022-09-05T11:10:03.933Z,3.00
2022-09-05T11:12:50.446Z,3.28
2022-09-05T11:15:29.972Z,3.20
2022-09-05T11:18:56.265Z,3.38
2022-09-05T11:22:07.855Z,2.97
2022-09-05T11:24:47.126Z,2.92
2022-09-05T11:27:43.729Z,3.30
2022-09-05T11:30:29.217Z,3.03
2022-09-05T11:39:55.344Z,2.78
2022-09-05T11:39:58.407Z,2.92
2022-09-05T11:40:07.050Z,2.72
2022-09-05T11:41:56.929Z,2.95
2022-09-05T11:44:34.895Z,2.80
2022-09-05T11:47:27.911Z,2.63
2022-09-05T11:50:09.142Z,2.70
2022-09-05T11:52:51.552Z,2.58
2022-09-05T11:55:24.394Z,3.00
2022-09-05T11:58:43.635Z,2.72
2022-09-05T12:01:38.194Z,2.70
2022-09-05T12:04:27.756Z,2.67
2022-09-05T12:07:32.385Z,2.80
2022-09-05T12:10:07.247Z,3.00
2022-09-05T12:12:53.158Z,2.70
2022-09-05T12:15:25.208Z,2.80
2022-09-05T12:18:19.084Z,2.40
2022-09-05T12:20:53.550Z,2.78
2022-09-05T12:24:13.503Z,2.67
2022-09-05T12:27:35.997Z,2.90
2022-09-05T12:29:34.931Z,2.90
2022-09-05T12:33:40.766Z,2.70
2022-09-05T12:36:12.399Z,3.00
2022-09-05T12:40:54.650Z,2.70
2022-09-05T12:41:43.037Z,2.63
2022-09-05T12:44:41.625Z,2.63
2022-09-05T12:47:16.694Z,2.70
2022-09-05T12:50:03.219Z,2.63
2022-09-05T12:52:46.850Z,2.70
2022-09-05T12:55:17.154Z,2.97
2022-09-05T13:02:56.472Z,2.67
2022-09-05T13:03:13.073Z,3.00
2022-09-05T13:03:32.018Z,2.72
2022-09-05T13:06:09.514Z,2.80
2022-09-05T13:08:59.505Z,2.53
2022-09-05T13:14:47.652Z,2.55
2022-09-05T13:15:02.799Z,3.05
2022-09-05T13:17:44.372Z,2.78
2022-09-05T13:20:25.847Z,2.72
2022-09-05T13:22:53.347Z,2.67
2022-09-05T13:25:27.259Z,2.90
2022-09-05T13:28:06.389Z,2.67
2022-09-05T13:35:36.674Z,2.45
2022-09-05T13:38:17.354Z,2.78
2022-09-05T13:38:17.483Z,2.80
2022-09-05T13:39:28.381Z,2.90
2022-09-05T13:41:59.579Z,2.75
2022-09-05T13:44:28.281Z,2.83
2022-09-05T13:47:29.802Z,2.70
2022-09-05T13:49:56.101Z,3.22
2022-09-05T13:52:35.695Z,3.00
2022-09-05T13:55:05.432Z,2.70
2022-09-05T13:57:35.037Z,3.00
2022-09-05T14:00:28.154Z,3.00
2022-09-05T14:03:40.864Z,2.95
2022-09-05T14:06:48.877Z,3.17
2022-09-05T14:10:20.909Z,3.08
2022-09-05T14:13:16.663Z,3.10
2022-09-05T14:15:53.039Z,3.13
2022-09-05T14:18:30.242Z,2.70
2022-09-05T14:21:15.975Z,3.13
2022-09-05T14:23:45.072Z,2.85
2022-09-05T14:26:17.208Z,3.03
2022-09-05T14:28:52.083Z,3.00
2022-09-05T14:37:39.897Z,3.00
2022-09-05T14:37:48.157Z,3.20
2022-09-05T14:37:54.945Z,3.13
2022-09-05T14:40:29.297Z,3.13
2022-09-05T14:43:27.137Z,3.22
2022-09-05T14:46:13.576Z,3.17
2022-09-05T14:48:58.328Z,2.80
2022-09-05T14:51:39.241Z,2.97
2022-09-05T15:02:38.020Z,3.10
2022-09-05T15:02:41.537Z,3.03
2022-09-05T15:03:00.554Z,2.85
2022-09-05T15:05:29.582Z,3.03
2022-09-05T15:08:16.253Z,3.13
2022-09-05T15:12:14.553Z,2.97
2022-09-05T15:14:03.735Z,2.75
2022-09-05T15:16:38.725Z,2.83
2022-09-05T15:19:09.423Z,3.05
2022-09-05T15:21:40.685Z,2.97
2022-09-05T15:24:17.274Z,3.08
2022-09-05T15:26:53.025Z,2.92
2022-09-05T15:29:34.710Z,3.38
2022-09-05T15:32:12.402Z,2.92
2022-09-05T15:34:39.689Z,3.00
2022-09-05T15:37:33.277Z,2.80
2022-09-05T15:40:02.025Z,3.10
2022-09-05T15:42:41.716Z,3.20
2022-09-05T15:45:12.125Z,3.05
2022-09-05T15:47:45.525Z,2.90
2022-09-05T15:50:21.898Z,3.13
2022-09-05T15:52:54.880Z,2.70
2022-09-05T15:55:24.716Z,2.83
2022-09-05T15:57:54.824Z,2.67
2022-09-05T16:00:51.964Z,3.00
2022-09-05T16:04:19.919Z,2.85
2022-09-05T16:10:21.525Z,3.00
2022-09-05T16:10:37.465Z,2.80
2022-09-05T16:14:39.690Z,2.50
2022-09-05T16:23:19.203Z,2.92
2022-09-05T16:23:25.292Z,2.90
2022-09-05T16:23:32.505Z,3.05
2022-09-05T16:26:16.849Z,2.80
2022-09-05T16:29:01.868Z,2.80
2022-09-05T16:31:51.094Z,2.55
2022-09-05T16:34:25.649Z,2.83
2022-09-05T16:37:08.304Z,3.00
2022-09-05T16:39:38.807Z,3.17
2022-09-05T16:42:20.502Z,3.50
2022-09-05T16:45:02.922Z,2.95
2022-09-05T16:47:35.085Z,3.08
2022-09-05T16:50:06.748Z,3.20
2022-09-05T16:52:46.237Z,2.63
2022-09-05T16:55:44.874Z,2.92
2022-09-05T16:58:27.746Z,3.05
2022-09-05T17:01:19.369Z,2.97
2022-09-05T17:04:07.342Z,2.88
2022-09-05T17:06:55.871Z,2.78
2022-09-05T17:09:28.574Z,2.92
2022-09-05T17:12:06.965Z,2.85
2022-09-05T17:14:36.086Z,2.85
2022-09-05T17:18:18.547Z,2.65
2022-09-05T17:20:14.798Z,2.50
2022-09-05T17:27:22.886Z,2.45
2022-09-05T17:29:30.088Z,2.85
2022-09-05T17:29:31.432Z,2.90
2022-09-05T17:31:54.442Z,2.60
2022-09-05T17:34:24.210Z,2.67
2022-09-05T17:36:53.658Z,2.88
2022-09-05T17:39:31.752Z,2.90
2022-09-05T17:42:48.763Z,2.80
2022-09-05T17:45:25.558Z,2.90
2022-09-05T17:47:55.212Z,2.63
2022-09-05T17:50:32.978Z,2.75
2022-09-05T17:53:25.630Z,2.58
2022-09-05T17:55:49.759Z,3.00
2022-09-05T17:58:50.318Z,2.88
2022-09-05T18:01:26.421Z,2.90
2022-09-05T18:03:54.386Z,2.95
2022-09-05T18:06:39.257Z,2.80
2022-09-05T18:09:42.881Z,2.75
2022-09-05T18:13:13.224Z,2.75
2022-09-05T18:15:26.492Z,2.63
2022-09-05T18:17:53.314Z,3.13
2022-09-05T18:20:23.391Z,2.85
2022-09-05T18:23:37.527Z,3.10
2022-09-05T18:26:25.502Z,3.00
2022-09-05T18:28:59.387Z,3.40
2022-09-05T18:31:40.938Z,3.35
2022-09-05T18:34:21.148Z,2.78
2022-09-05T18:36:50.120Z,3.00
2022-09-05T18:39:38.148Z,2.92
2022-09-05T18:42:25.962Z,3.10
2022-09-05T18:45:00.313Z,2.95
2022-09-05T18:47:33.882Z,3.22
2022-09-05T18:50:24.550Z,3.20
2022-09-05T18:52:50.642Z,3.40
2022-09-05T18:56:14.055Z,3.60
2022-09-05T18:58:28.399Z,3.05
2022-09-05T19:00:55.719Z,3.20
2022-09-05T19:03:29.669Z,2.92
2022-09-05T19:06:35.863Z,3.03
2022-09-05T19:08:53.211Z,3.10
2022-09-05T19:11:31.929Z,2.90
2022-09-05T19:14:25.720Z,3.05
2022-09-05T19:17:01.254Z,3.10
2022-09-05T19:19:31.421Z,3.10
2022-09-05T19:22:36.011Z,2.72
2022-09-05T19:24:49.029Z,3.13
2022-09-05T19:28:29.251Z,2.75
2022-09-05T19:36:46.172Z,3.30
2022-09-05T19:36:46.285Z,3.15
2022-09-05T19:37:04.608Z,3.35
2022-09-05T19:38:38.365Z,3.42
2022-09-05T19:47:36.323Z,3.50
2022-09-05T19:47:44.517Z,3.70
2022-09-05T19:47:46.587Z,3.10
2022-09-05T19:49:55.940Z,3.20
2022-09-05T19:52:22.688Z,4.03
2022-09-05T19:54:52.439Z,3.53
2022-09-05T19:57:19.989Z,3.72
2022-09-05T19:59:53.131Z,3.47
2022-09-05T20:02:25.508Z,3.85
2022-09-05T20:04:54.794Z,3.97
2022-09-05T20:07:24.746Z,4.00
2022-09-05T20:09:53.591Z,4.50
2022-09-05T20:12:24.541Z,4.22
2022-09-05T20:14:51.529Z,3.92
2022-09-05T20:17:28.501Z,4.22
2022-09-05T20:20:08.894Z,4.05
2022-09-05T20:22:49.075Z,4.10
2022-09-05T20:25:35.039Z,3.67
2022-09-05T20:28:10.670Z,4.33
2022-09-05T20:30:42.653Z,3.90
2022-09-05T20:33:18.425Z,3.83
2022-09-05T20:39:22.606Z,3.93
2022-09-05T20:43:24.002Z,3.97
2022-09-05T20:43:28.034Z,3.80
2022-09-05T20:44:19.674Z,3.70
2022-09-05T20:54:05.109Z,4.10
2022-09-05T20:54:23.021Z,3.90
2022-09-05T20:54:26.981Z,4.37
2022-09-05T20:55:42.316Z,4.20
2022-09-05T20:58:11.910Z,4.00
2022-09-05T21:00:45.215Z,3.77
2022-09-05T21:03:36.826Z,3.80
2022-09-05T21:06:11.907Z,4.30
2022-09-05T21:08:39.172Z,4.23
2022-09-05T21:11:06.456Z,4.10
2022-09-05T21:13:38.380Z,4.10
2022-09-05T21:16:21.751Z,4.30
2022-09-05T21:18:50.194Z,4.40
2022-09-05T21:21:28.981Z,4.40
2022-09-05T21:24:16.291Z,4.47
2022-09-05T21:26:43.806Z,4.20
2022-09-05T21:29:39.494Z,4.30
2022-09-05T21:32:11.376Z,4.53
2022-09-05T21:34:45.179Z,4.30
2022-09-05T21:37:14.070Z,4.50
2022-09-05T21:39:59.776Z,4.40
2022-09-05T21:44:07.377Z,4.40
2022-09-05T21:47:46.173Z,4.10
2022-09-05T21:48:11.804Z,4.60
2022-09-05T21:50:49.665Z,4.40
2022-09-05T21:56:01.107Z,3.97
2022-09-05T21:59:18.403Z,4.70
2022-09-05T21:59:32.836Z,4.07
2022-09-05T22:01:56.673Z,4.20
2022-09-05T22:04:23.411Z,4.17
2022-09-05T22:06:50.897Z,4.40
2022-09-05T22:09:18.897Z,4.40
2022-09-05T22:11:50.722Z,4.57
2022-09-05T22:14:24.298Z,4.50
2022-09-05T22:16:55.280Z,4.40
2022-09-05T22:19:31.933Z,4.47
2022-09-05T22:22:16.521Z,4.27
2022-09-05T22:24:59.657Z,4.30
2022-09-05T22:27:27.495Z,4.07
2022-09-05T22:29:55.588Z,4.10
2022-09-05T22:32:34.690Z,4.30
2022-09-05T22:35:15.740Z,4.10
2022-09-05T22:38:00.309Z,4.40
2022-09-05T22:40:28.923Z,4.17
2022-09-05T22:43:03.969Z,4.07
2022-09-05T22:45:33.136Z,4.53
2022-09-05T22:48:06.870Z,4.20
2022-09-05T22:50:33.715Z,4.40
2022-09-05T22:53:00.421Z,4.50
2022-09-05T22:55:27.205Z,4.13
2022-09-05T22:57:53.973Z,4.50
2022-09-05T23:00:21.412Z,4.50
2022-09-05T23:02:52.398Z,4.23
2022-09-05T23:05:21.867Z,4.53
2022-09-05T23:07:48.626Z,4.33
2022-09-05T23:10:15.913Z,4.40
2022-09-05T23:12:42.673Z,4.33
2022-09-05T23:15:10.016Z,4.13
2022-09-05T23:17:36.764Z,4.20
2022-09-05T23:20:05.000Z,4.20
2022-09-05T23:22:31.737Z,3.90
2022-09-05T23:24:58.489Z,3.97
2022-09-05T23:27:25.241Z,4.80
2022-09-05T23:29:51.980Z,4.30
2022-09-05T23:32:18.654Z,4.07
2022-09-05T23:34:45.347Z,4.33
2022-09-05T23:37:12.150Z,4.27
2022-09-05T23:39:38.888Z,4.27
2022-09-05T23:42:05.768Z,4.37
2022-09-05T23:44:32.483Z,4.47
2022-09-05T23:46:59.205Z,4.40
2022-09-05T23:49:25.952Z,4.23
2022-09-05T23:51:52.663Z,4.77
2022-09-05T23:54:19.376Z,4.53
2022-09-05T23:56:46.273Z,4.13
2022-09-05T23:59:13.166Z,4.57
